Time;durP1;ratioP1;P1;durP2;ratioP2;P2;SDS_P1;SDS_P2;PMS_P1;PMS_P2;Temp;Humidity;BMP_temperature;BMP_pressure;BME280_temperature;BME280_humidity;BME280_pressure;Samples;Min_cycle;Max_cycle;Signal;HPM_P1;HPM_P2
2022/10/06 00:01:14;;;;;;;5.25;1.25;;;13.20;99.90;;;;;;5056472;28;20321;-58
2022/10/06 00:03:41;;;;;;;3.70;0.90;;;13.20;99.90;;;;;;5057003;28;20473;-65
2022/10/06 00:06:07;;;;;;;3.10;1.10;;;13.20;99.90;;;;;;5056719;28;20498;-56
2022/10/06 00:08:36;;;;;;;7.50;1.33;;;13.20;99.90;;;;;;5056506;28;20116;-62
2022/10/06 00:11:01;;;;;;;4.72;1.20;;;13.20;99.90;;;;;;5056850;28;20115;-56
2022/10/06 00:13:29;;;;;;;6.25;1.05;;;13.10;99.90;;;;;;5056963;28;20124;-58
2022/10/06 00:15:55;;;;;;;7.50;1.52;;;13.20;99.90;;;;;;5055938;28;20021;-58
2022/10/06 00:18:20;;;;;;;8.02;1.23;;;13.20;99.90;;;;;;5056955;28;20060;-56
2022/10/06 00:20:53;;;;;;;2.40;1.38;;;13.20;99.90;;;;;;5056745;28;20025;-56
2022/10/06 00:23:19;;;;;;;7.30;1.30;;;13.20;99.90;;;;;;5056581;28;20025;-56
2022/10/06 00:25:45;;;;;;;7.80;1.13;;;13.20;99.90;;;;;;5056630;28;20062;-59
2022/10/06 00:28:11;;;;;;;6.15;1.73;;;13.20;99.90;;;;;;5056978;28;20355;-61
2022/10/06 00:30:36;;;;;;;3.70;0.90;;;13.10;99.90;;;;;;5056519;28;20059;-65
2022/10/06 00:33:03;;;;;;;4.13;1.00;;;13.10;99.90;;;;;;5056635;28;20029;-73
2022/10/06 00:35:33;;;;;;;5.68;1.35;;;13.10;99.90;;;;;;5055690;28;20031;-69
2022/10/06 00:38:00;;;;;;;4.13;1.10;;;13.00;99.90;;;;;;5053481;28;20017;-67
2022/10/06 00:40:26;;;;;;;7.15;1.58;;;13.00;99.90;;;;;;5054182;28;20020;-68
2022/10/06 00:42:55;;;;;;;3.40;1.05;;;13.00;99.90;;;;;;5053495;28;20020;-67
2022/10/06 00:45:40;;;;;;;4.32;0.95;;;13.00;99.90;;;;;;5054061;28;20127;-69
2022/10/06 00:48:11;;;;;;;2.83;1.00;;;13.00;99.90;;;;;;5053591;28;20124;-72
2022/10/06 00:50:37;;;;;;;5.55;1.67;;;12.90;99.90;;;;;;5053716;28;20052;-69
2022/10/06 00:53:04;;;;;;;6.60;1.55;;;12.90;99.90;;;;;;5053329;28;20036;-67
2022/10/06 00:55:30;;;;;;;7.50;1.80;;;12.90;99.90;;;;;;5054023;28;20127;-73
2022/10/06 00:57:57;;;;;;;5.47;0.90;;;12.90;99.90;;;;;;5053194;28;20021;-74
2022/10/06 01:00:23;;;;;;;3.42;1.55;;;12.80;99.90;;;;;;5053647;28;20017;-57
2022/10/06 01:02:55;;;;;;;5.05;1.00;;;12.80;99.90;;;;;;5053524;28;20055;-68
2022/10/06 01:05:36;;;;;;;4.10;0.95;;;12.80;99.90;;;;;;5052910;28;20037;-52
2022/10/06 01:08:01;;;;;;;6.10;1.02;;;12.80;99.90;;;;;;5053101;28;20047;-55
2022/10/06 01:10:27;;;;;;;9.25;1.15;;;12.80;99.90;;;;;;5049615;28;20458;-56
2022/10/06 01:12:53;;;;;;;6.20;1.60;;;12.80;99.90;;;;;;5052248;28;20029;-56
2022/10/06 01:15:20;;;;;;;5.57;1.10;;;12.80;99.90;;;;;;5052453;28;20067;-57
2022/10/06 01:18:12;;;;;;;9.60;1.42;;;12.80;99.90;;;;;;5053252;28;20049;-57
2022/10/06 01:20:45;;;;;;;6.22;1.42;;;12.70;99.90;;;;;;5053042;28;20099;-62
2022/10/06 01:23:12;;;;;;;5.30;1.33;;;12.70;99.90;;;;;;5053054;28;20401;-52
2022/10/06 01:25:37;;;;;;;7.70;1.35;;;12.60;99.90;;;;;;5052503;28;20079;-54
2022/10/06 01:28:05;;;;;;;6.88;1.50;;;12.60;99.90;;;;;;5052745;28;20491;-66
2022/10/06 01:30:40;;;;;;;7.20;1.20;;;12.60;99.90;;;;;;5053446;28;20043;-68
2022/10/06 01:33:06;;;;;;;6.43;1.20;;;12.60;99.90;;;;;;5052170;28;20134;-63
2022/10/06 01:35:31;;;;;;;7.38;1.38;;;12.60;99.90;;;;;;5052789;28;20061;-64
2022/10/06 01:37:58;;;;;;;6.13;1.52;;;12.60;99.90;;;;;;5052455;28;20044;-60
2022/10/06 01:40:28;;;;;;;8.55;1.38;;;12.60;99.90;;;;;;5052407;28;20017;-61
2022/10/06 01:42:54;;;;;;;5.95;1.33;;;12.50;99.90;;;;;;5052470;28;20370;-63
2022/10/06 01:45:20;;;;;;;4.15;1.25;;;12.50;99.90;;;;;;5052896;28;20408;-63
2022/10/06 01:47:46;;;;;;;3.78;1.15;;;12.50;99.90;;;;;;5050891;28;20018;-67
2022/10/06 01:50:13;;;;;;;7.95;1.35;;;12.50;99.90;;;;;;5052727;28;20070;-65
2022/10/06 01:52:38;;;;;;;5.57;1.40;;;12.40;99.90;;;;;;5052591;28;20041;-70
2022/10/06 01:55:05;;;;;;;6.60;0.98;;;12.40;99.90;;;;;;5051640;28;20029;-71
2022/10/06 01:57:31;;;;;;;7.80;1.30;;;12.30;99.90;;;;;;5052444;28;20035;-74
2022/10/06 01:59:56;;;;;;;2.55;1.27;;;12.30;99.90;;;;;;5052373;28;20104;-72
2022/10/06 02:02:22;;;;;;;6.65;1.33;;;12.30;99.90;;;;;;5052063;28;20128;-68
2022/10/06 02:04:48;;;;;;;6.70;1.25;;;12.30;99.90;;;;;;5052195;28;20453;-63
2022/10/06 02:07:13;;;;;;;7.00;1.33;;;12.30;99.90;;;;;;5052314;28;20021;-70
2022/10/06 02:09:39;;;;;;;1.85;0.93;;;12.30;99.90;;;;;;5052149;28;20473;-74
2022/10/06 02:12:04;;;;;;;2.92;1.30;;;12.20;99.90;;;;;;5052080;28;20071;-58
2022/10/06 02:14:31;;;;;;;6.22;1.30;;;12.20;99.90;;;;;;5051723;28;20500;-58
2022/10/06 02:16:57;;;;;;;4.43;1.25;;;12.20;99.90;;;;;;5052033;28;20025;-65
2022/10/06 02:19:22;;;;;;;4.47;1.02;;;12.10;99.90;;;;;;5052072;28;20049;-66
2022/10/06 02:21:48;;;;;;;4.05;1.17;;;12.10;99.90;;;;;;5051331;28;20139;-70
2022/10/06 02:24:13;;;;;;;8.90;1.67;;;12.00;99.90;;;;;;5052129;28;20071;-70
2022/10/06 02:26:39;;;;;;;8.32;1.20;;;12.00;99.90;;;;;;5052052;28;20481;-71
2022/10/06 02:29:06;;;;;;;6.90;1.27;;;12.00;99.90;;;;;;5051409;28;20082;-69
2022/10/06 02:31:31;;;;;;;4.30;0.93;;;12.00;99.90;;;;;;5052277;28;20106;-65
2022/10/06 02:33:57;;;;;;;6.15;1.08;;;12.00;99.90;;;;;;5051803;28;20483;-68
2022/10/06 02:36:23;;;;;;;5.82;1.02;;;12.00;99.90;;;;;;5051592;28;20021;-71
2022/10/06 02:38:49;;;;;;;6.55;1.30;;;12.00;99.90;;;;;;5051499;28;20450;-72
2022/10/06 02:41:15;;;;;;;6.30;1.55;;;11.90;99.90;;;;;;5051877;28;20029;-71
2022/10/06 02:43:40;;;;;;;7.93;1.58;;;11.90;99.90;;;;;;5051081;28;20025;-70
2022/10/06 02:46:10;;;;;;;9.55;1.40;;;11.90;99.90;;;;;;5051433;28;20446;-74
2022/10/06 02:48:36;;;;;;;7.95;1.33;;;11.80;99.90;;;;;;5051662;28;20032;-70
2022/10/06 02:51:08;;;;;;;5.13;1.17;;;11.80;99.90;;;;;;5050968;28;20021;-73
2022/10/06 02:53:35;;;;;;;5.43;1.48;;;11.80;99.90;;;;;;5051460;28;20037;-74
2022/10/06 02:56:04;;;;;;;8.18;2.13;;;11.80;99.90;;;;;;5051146;28;20105;-70
2022/10/06 02:58:30;;;;;;;6.78;1.73;;;11.80;99.90;;;;;;5050547;28;20033;-71
2022/10/06 03:01:11;;;;;;;5.55;1.63;;;11.80;99.90;;;;;;5051162;28;20029;-53
2022/10/06 03:03:37;;;;;;;7.43;2.20;;;11.70;99.90;;;;;;5050719;28;20032;-57
2022/10/06 03:06:23;;;;;;;5.50;1.05;;;11.70;99.90;;;;;;5051072;28;20021;-58
2022/10/06 03:08:51;;;;;;;7.32;1.30;;;11.70;99.90;;;;;;5049978;28;20021;-66
2022/10/06 03:11:19;;;;;;;8.52;1.30;;;11.70;99.90;;;;;;5048717;28;20040;-52
2022/10/06 03:13:48;;;;;;;4.32;1.08;;;11.70;99.90;;;;;;5048933;28;20533;-53
2022/10/06 03:16:27;;;;;;;9.30;1.45;;;11.60;99.90;;;;;;5051154;28;20035;-52
2022/10/06 03:18:54;;;;;;;4.85;1.13;;;11.60;99.90;;;;;;5049810;28;20134;-51
2022/10/06 03:21:26;;;;;;;4.60;1.40;;;11.60;99.90;;;;;;5050926;28;20028;-53
2022/10/06 03:23:53;;;;;;;8.18;1.55;;;11.50;99.90;;;;;;5050936;28;20032;-57
2022/10/06 03:26:21;;;;;;;9.13;1.67;;;11.50;99.90;;;;;;5051864;28;20025;-64
2022/10/06 03:28:47;;;;;;;6.82;1.35;;;11.50;99.90;;;;;;5050733;28;20021;-64
2022/10/06 03:31:15;;;;;;;5.00;1.20;;;11.50;99.90;;;;;;5051260;28;20032;-68
2022/10/06 03:33:40;;;;;;;4.95;1.13;;;11.50;99.90;;;;;;5050721;28;20370;-70
2022/10/06 03:36:11;;;;;;;4.00;1.23;;;11.40;99.90;;;;;;5050499;28;20025;-71
2022/10/06 03:38:37;;;;;;;5.55;1.17;;;11.40;99.90;;;;;;5050951;28;20033;-67
2022/10/06 03:41:10;;;;;;;7.28;1.50;;;11.40;99.90;;;;;;5050381;28;20028;-73
2022/10/06 03:43:36;;;;;;;5.50;1.25;;;11.40;99.90;;;;;;5050455;28;20017;-69
2022/10/06 03:46:03;;;;;;;5.70;1.15;;;11.40;99.90;;;;;;5049831;28;20136;-64
2022/10/06 03:48:32;;;;;;;9.15;1.50;;;11.40;99.90;;;;;;5050558;28;20036;-64
2022/10/06 03:51:12;;;;;;;7.63;1.33;;;11.30;99.90;;;;;;5050401;28;20044;-65
2022/10/06 03:53:39;;;;;;;6.32;1.40;;;11.30;99.90;;;;;;5049754;28;20512;-59
2022/10/06 03:56:13;;;;;;;6.40;1.30;;;11.30;99.90;;;;;;5050435;28;20017;-56
2022/10/06 03:58:40;;;;;;;6.95;1.08;;;11.30;99.90;;;;;;5050521;28;20017;-70
2022/10/06 04:01:14;;;;;;;4.00;1.40;;;11.20;99.90;;;;;;5049512;28;20025;-66
2022/10/06 04:03:39;;;;;;;7.70;1.48;;;11.30;99.90;;;;;;5051209;28;20054;-61
2022/10/06 04:06:10;;;;;;;7.95;1.35;;;11.20;99.90;;;;;;5050460;28;20103;-54
2022/10/06 04:08:37;;;;;;;8.02;1.45;;;11.20;99.90;;;;;;5050265;28;20025;-58
2022/10/06 04:11:05;;;;;;;9.10;1.42;;;11.20;99.90;;;;;;5051153;28;20106;-55
2022/10/06 04:13:30;;;;;;;9.15;1.63;;;11.20;99.90;;;;;;5054349;28;20186;-61
2022/10/06 04:15:56;;;;;;;12.32;1.90;;;11.20;99.90;;;;;;5052089;28;20513;-64
2022/10/06 04:18:22;;;;;;;5.43;1.10;;;11.10;99.90;;;;;;5052741;28;20060;-71
2022/10/06 04:20:48;;;;;;;8.95;1.60;;;11.10;99.90;;;;;;5054636;28;20339;-68
2022/10/06 04:23:15;;;;;;;6.85;1.40;;;11.10;99.90;;;;;;5054084;28;20028;-70
2022/10/06 04:25:40;;;;;;;5.28;1.30;;;11.10;99.90;;;;;;5054988;28;20017;-64
2022/10/06 04:28:06;;;;;;;6.22;1.83;;;11.10;99.90;;;;;;5054871;28;20032;-68
2022/10/06 04:30:32;;;;;;;8.52;1.50;;;11.10;99.90;;;;;;5054336;28;20067;-69
2022/10/06 04:32:57;;;;;;;3.53;1.20;;;11.10;99.90;;;;;;5054328;28;20029;-69
2022/10/06 04:35:23;;;;;;;5.78;1.23;;;11.10;99.90;;;;;;5053693;28;20488;-66
2022/10/06 04:37:49;;;;;;;5.60;0.95;;;11.10;99.90;;;;;;5054213;28;20025;-67
2022/10/06 04:40:15;;;;;;;7.05;1.77;;;11.00;99.90;;;;;;5054073;28;20032;-63
2022/10/06 04:42:42;;;;;;;5.88;1.30;;;11.00;99.90;;;;;;5053676;28;20060;-63
2022/10/06 04:45:08;;;;;;;7.50;1.67;;;11.00;99.90;;;;;;5053926;28;20025;-66
2022/10/06 04:47:33;;;;;;;7.30;1.50;;;10.90;99.90;;;;;;5052991;28;20017;-63
2022/10/06 04:49:59;;;;;;;5.57;1.25;;;10.90;99.90;;;;;;5051512;28;20562;-59
2022/10/06 04:52:24;;;;;;;2.97;1.13;;;10.90;99.90;;;;;;5052075;28;20121;-53
2022/10/06 04:54:50;;;;;;;7.63;1.20;;;10.80;99.90;;;;;;5053642;28;20028;-69
2022/10/06 04:57:16;;;;;;;6.30;1.27;;;10.80;99.90;;;;;;5052987;28;20025;-56
2022/10/06 05:02:27;;;;;;;9.07;1.63;;;10.80;99.90;;;;;;5053891;28;20056;-61
2022/10/06 05:04:53;;;;;;;3.65;1.33;;;10.80;99.90;;;;;;5052673;28;20017;-63
2022/10/06 05:07:19;;;;;;;3.28;1.30;;;10.70;99.90;;;;;;5053419;28;20017;-69
2022/10/06 05:09:44;;;;;;;8.20;1.55;;;10.70;99.90;;;;;;5051985;28;20024;-64
2022/10/06 05:12:10;;;;;;;7.20;1.33;;;10.70;99.90;;;;;;5052806;28;20112;-69
2022/10/06 05:14:36;;;;;;;6.45;1.23;;;10.70;99.90;;;;;;5053245;28;20465;-56
2022/10/06 05:17:01;;;;;;;10.20;1.90;;;10.70;99.90;;;;;;5042073;28;20098;-51
2022/10/06 05:19:27;;;;;;;6.05;1.00;;;10.60;99.90;;;;;;5042840;28;20021;-51
2022/10/06 05:21:52;;;;;;;9.60;1.60;;;10.60;99.90;;;;;;5051860;28;20014;-47
2022/10/06 05:24:18;;;;;;;5.22;1.42;;;10.60;99.90;;;;;;5051407;28;20438;-50
2022/10/06 05:26:43;;;;;;;4.47;1.20;;;10.60;99.90;;;;;;5052587;28;20081;-55
2022/10/06 05:29:09;;;;;;;4.25;1.33;;;10.50;99.90;;;;;;5050577;28;20366;-54
2022/10/06 05:31:39;;;;;;;12.23;1.83;;;10.50;99.90;;;;;;5050693;28;20036;-49
2022/10/06 05:34:04;;;;;;;5.78;1.65;;;10.50;99.90;;;;;;5051796;28;20040;-53
2022/10/06 05:36:32;;;;;;;7.22;1.98;;;10.50;99.90;;;;;;5053102;28;20025;-60
2022/10/06 05:38:58;;;;;;;10.98;2.00;;;10.50;99.90;;;;;;5050969;28;20049;-56
2022/10/06 05:41:32;;;;;;;7.10;1.42;;;10.50;99.90;;;;;;5051514;28;20504;-56
2022/10/06 05:43:58;;;;;;;8.27;1.52;;;10.50;99.90;;;;;;5051190;28;20036;-55
2022/10/06 05:46:27;;;;;;;3.72;1.50;;;10.50;99.90;;;;;;5051626;28;20424;-59
2022/10/06 05:48:57;;;;;;;8.05;1.67;;;10.40;99.90;;;;;;5052033;28;20028;-63
2022/10/06 05:51:26;;;;;;;6.60;1.73;;;10.40;99.90;;;;;;5051469;28;20512;-61
2022/10/06 05:53:51;;;;;;;7.88;1.45;;;10.40;99.90;;;;;;5051156;28;20036;-55
2022/10/06 05:56:25;;;;;;;4.07;1.67;;;10.40;99.90;;;;;;5051679;28;20473;-61
2022/10/06 05:58:53;;;;;;;7.07;1.48;;;10.40;99.90;;;;;;5051513;28;20028;-60
2022/10/06 06:01:45;;;;;;;6.28;1.50;;;10.40;99.90;;;;;;5050471;28;20021;-63
2022/10/06 06:04:12;;;;;;;6.38;1.67;;;10.40;99.90;;;;;;5048332;28;20147;-67
2022/10/06 06:06:43;;;;;;;8.80;1.90;;;10.40;99.90;;;;;;5050994;28;20115;-61
2022/10/06 06:09:10;;;;;;;6.65;1.30;;;10.30;99.90;;;;;;5051958;28;20500;-59
2022/10/06 06:11:38;;;;;;;6.43;1.45;;;10.40;99.90;;;;;;5051255;28;20019;-59
2022/10/06 06:14:07;;;;;;;9.38;1.65;;;10.40;99.90;;;;;;5050375;28;20371;-62
2022/10/06 06:16:32;;;;;;;10.48;1.98;;;10.40;99.90;;;;;;5051648;28;20406;-63
2022/10/06 06:18:59;;;;;;;7.05;2.67;;;10.40;99.90;;;;;;5051008;28;20087;-66
2022/10/06 06:21:26;;;;;;;6.45;1.50;;;10.40;99.90;;;;;;5051565;28;20025;-65
2022/10/06 06:23:52;;;;;;;5.65;1.13;;;10.40;99.90;;;;;;5050673;28;20028;-59
2022/10/06 06:26:18;;;;;;;3.47;1.30;;;10.40;99.90;;;;;;5052400;28;20021;-62
2022/10/06 06:28:45;;;;;;;7.85;1.45;;;10.40;99.90;;;;;;5051486;28;20029;-64
2022/10/06 06:31:22;;;;;;;9.43;1.70;;;10.40;99.90;;;;;;5052374;28;20021;-66
2022/10/06 06:33:50;;;;;;;9.50;2.00;;;10.50;99.90;;;;;;5051226;28;20025;-59
2022/10/06 06:36:17;;;;;;;5.88;1.50;;;10.50;99.90;;;;;;5051434;28;20027;-68
2022/10/06 06:38:48;;;;;;;7.75;1.40;;;10.50;99.90;;;;;;5051849;28;20523;-64
2022/10/06 06:41:16;;;;;;;10.65;1.98;;;10.50;99.90;;;;;;5052007;28;20021;-68
2022/10/06 06:43:42;;;;;;;8.10;1.50;;;10.50;99.90;;;;;;5051541;28;20036;-67
2022/10/06 06:46:08;;;;;;;9.05;1.88;;;10.60;99.90;;;;;;5051905;28;20346;-65
2022/10/06 06:48:37;;;;;;;7.38;1.73;;;10.70;99.90;;;;;;5051687;28;20462;-59
2022/10/06 06:51:06;;;;;;;7.13;1.55;;;10.60;99.90;;;;;;5051758;28;20066;-71
2022/10/06 06:53:32;;;;;;;9.30;2.20;;;10.70;99.90;;;;;;5051805;28;20094;-67
2022/10/06 06:55:58;;;;;;;9.52;2.17;;;10.70;99.90;;;;;;5051067;28;20784;-62
2022/10/06 06:58:24;;;;;;;5.55;1.48;;;10.70;99.90;;;;;;5052135;28;20040;-69
2022/10/06 07:00:49;;;;;;;10.60;1.52;;;10.80;99.90;;;;;;5051950;28;20485;-70
2022/10/06 07:03:17;;;;;;;4.68;1.42;;;10.80;99.90;;;;;;5050988;28;20049;-72
2022/10/06 07:05:46;;;;;;;6.97;1.40;;;10.90;99.90;;;;;;5050495;28;20381;-71
2022/10/06 07:08:14;;;;;;;7.60;2.35;;;10.90;99.90;;;;;;5051777;28;20426;-71
2022/10/06 07:10:40;;;;;;;8.18;1.60;;;10.90;99.90;;;;;;5051404;28;20046;-69
2022/10/06 07:13:06;;;;;;;7.68;2.10;;;11.00;99.90;;;;;;5050020;28;20381;-68
2022/10/06 07:26:31;;;;;;;6.75;1.95;;;11.20;99.90;;;;;;5051767;28;20043;-67
2022/10/06 07:29:00;;;;;;;6.35;1.67;;;11.30;99.90;;;;;;5051246;28;20055;-69
2022/10/06 07:31:32;;;;;;;18.17;2.15;;;11.30;99.90;;;;;;5050803;28;20028;-56
2022/10/06 07:33:59;;;;;;;10.75;1.90;;;11.40;99.90;;;;;;5049556;28;20492;-53
2022/10/06 07:36:25;;;;;;;10.20;2.10;;;11.40;99.90;;;;;;5051173;28;20028;-51
2022/10/06 07:38:50;;;;;;;8.05;1.90;;;11.50;99.90;;;;;;5050318;28;20029;-53
2022/10/06 07:41:16;;;;;;;9.68;1.58;;;11.50;99.90;;;;;;5051210;28;20454;-55
2022/10/06 07:43:41;;;;;;;11.07;1.95;;;11.60;99.90;;;;;;5051980;28;20041;-52
2022/10/06 07:46:10;;;;;;;7.70;2.10;;;11.60;99.90;;;;;;5053387;28;20029;-63
2022/10/06 07:48:37;;;;;;;5.60;1.75;;;11.70;99.90;;;;;;5055378;28;20028;-63
2022/10/06 07:51:05;;;;;;;12.07;2.17;;;11.80;99.90;;;;;;5055054;28;20071;-56
2022/10/06 07:53:32;;;;;;;5.95;1.48;;;11.80;99.90;;;;;;5054194;28;20516;-61
2022/10/06 07:56:05;;;;;;;9.73;2.05;;;11.90;99.90;;;;;;5054799;28;20037;-58
2022/10/06 07:58:33;;;;;;;7.05;1.73;;;12.00;99.90;;;;;;5054951;28;20025;-59
2022/10/06 08:01:10;;;;;;;8.27;1.70;;;12.00;99.90;;;;;;5054273;28;20054;-63
2022/10/06 08:03:36;;;;;;;8.73;2.10;;;12.10;99.90;;;;;;5054972;28;20071;-65
2022/10/06 08:06:02;;;;;;;12.45;2.42;;;12.20;99.90;;;;;;5054235;28;20051;-58
2022/10/06 08:08:35;;;;;;;13.30;2.20;;;12.20;99.90;;;;;;5054892;28;20013;-59
2022/10/06 08:11:02;;;;;;;9.98;1.75;;;12.30;99.90;;;;;;5054519;28;20056;-66
2022/10/06 08:13:31;;;;;;;11.10;1.88;;;12.30;99.90;;;;;;5054368;28;20029;-61
2022/10/06 08:16:06;;;;;;;9.23;1.88;;;12.40;99.90;;;;;;5054382;28;20024;-68
2022/10/06 08:18:32;;;;;;;7.05;1.90;;;12.50;99.90;;;;;;5054618;28;20508;-60
2022/10/06 08:20:57;;;;;;;5.07;1.77;;;12.50;99.90;;;;;;5053765;28;20029;-64
2022/10/06 08:23:23;;;;;;;8.15;1.77;;;12.60;99.90;;;;;;5054791;28;20028;-69
2022/10/06 08:25:52;;;;;;;10.18;2.17;;;12.60;99.90;;;;;;5054086;28;20021;-69
2022/10/06 08:28:18;;;;;;;10.13;2.05;;;12.70;99.90;;;;;;5054387;28;20103;-67
2022/10/06 08:30:43;;;;;;;6.68;1.58;;;12.70;99.90;;;;;;5054745;28;20104;-53
2022/10/06 08:33:09;;;;;;;8.43;1.85;;;12.80;99.90;;;;;;5054473;28;20116;-66
2022/10/06 08:35:35;;;;;;;12.10;2.08;;;12.90;99.90;;;;;;5053799;28;20385;-62
2022/10/06 08:38:00;;;;;;;7.53;1.63;;;12.90;99.90;;;;;;5053997;28;20020;-59
2022/10/06 08:40:27;;;;;;;6.90;3.10;;;13.00;99.90;;;;;;5054563;28;20071;-72
2022/10/06 08:42:56;;;;;;;8.95;1.98;;;13.10;99.90;;;;;;5052983;28;20086;-73
2022/10/06 08:45:31;;;;;;;11.25;2.00;;;13.10;99.90;;;;;;5054311;28;20470;-71
2022/10/06 08:48:16;;;;;;;7.03;1.63;;;13.10;99.90;;;;;;5053903;28;20075;-71
2022/10/06 08:51:11;;;;;;;4.80;1.30;;;13.30;99.90;;;;;;5052872;28;20032;-72
2022/10/06 08:53:47;;;;;;;6.72;1.70;;;13.30;99.90;;;;;;5053947;28;20036;-67
2022/10/06 08:56:20;;;;;;;6.75;1.67;;;13.40;99.60;;;;;;5053382;28;20048;-71
2022/10/06 08:58:56;;;;;;;4.63;1.60;;;13.40;99.40;;;;;;5053283;28;20044;-68
2022/10/06 09:01:28;;;;;;;9.07;1.88;;;13.50;99.30;;;;;;5053608;28;20025;-64
2022/10/06 09:04:00;;;;;;;10.45;2.03;;;13.60;99.20;;;;;;5052657;28;20021;-68
2022/10/06 09:06:53;;;;;;;5.82;1.45;;;13.60;98.30;;;;;;5054188;28;20017;-64
2022/10/06 09:09:20;;;;;;;6.35;1.60;;;13.70;98.50;;;;;;5052991;28;20025;-61
2022/10/06 09:12:05;;;;;;;10.20;1.45;;;13.70;98.30;;;;;;5053311;28;20029;-62
2022/10/06 09:15:04;;;;;;;12.00;2.45;;;13.80;98.00;;;;;;5053886;28;20037;-64
2022/10/06 09:17:35;;;;;;;5.93;1.60;;;13.90;97.50;;;;;;5052678;28;20033;-64
2022/10/06 09:20:10;;;;;;;10.80;1.50;;;13.90;97.50;;;;;;5053306;28;20020;-62
2022/10/06 09:22:36;;;;;;;5.65;1.30;;;14.00;97.10;;;;;;5053163;28;20021;-67
2022/10/06 09:25:15;;;;;;;6.30;1.40;;;14.10;96.90;;;;;;5052524;28;20083;-69
2022/10/06 09:27:46;;;;;;;5.05;1.13;;;14.20;96.10;;;;;;5053235;28;20074;-63
2022/10/06 09:30:12;;;;;;;4.15;1.42;;;14.40;95.70;;;;;;5053340;28;20117;-67
2022/10/06 09:32:43;;;;;;;6.40;1.30;;;14.50;95.00;;;;;;5051254;28;20108;-71
2022/10/06 09:35:19;;;;;;;;;;;14.60;94.60;;;;;;5053628;28;20439;-63
2022/10/06 09:37:55;;;;;;;4.78;1.50;;;14.80;93.80;;;;;;5052143;28;19911;-72
2022/10/06 09:40:50;;;;;;;5.78;2.00;;;14.80;93.90;;;;;;5053361;28;20083;-66
2022/10/06 09:43:24;;;;;;;4.32;1.10;;;14.90;93.30;;;;;;5052916;28;20481;-51
2022/10/06 09:45:50;;;;;;;6.82;1.23;;;14.90;93.20;;;;;;5051896;28;20078;-59
2022/10/06 09:48:24;;;;;;;7.82;1.45;;;14.90;92.80;;;;;;5052842;28;20033;-56
2022/10/06 09:51:11;;;;;;;7.47;1.33;;;14.90;92.50;;;;;;5052635;28;20013;-51
2022/10/06 09:53:39;;;;;;;4.40;1.10;;;14.90;92.50;;;;;;5052957;28;20597;-61
2022/10/06 09:56:17;;;;;;;3.67;0.88;;;14.90;91.90;;;;;;5052271;28;20017;-65
2022/10/06 09:58:57;;;;;;;5.13;1.50;;;15.00;91.90;;;;;;5051966;28;20033;-59
2022/10/06 10:01:26;;;;;;;8.38;1.50;;;15.00;91.90;;;;;;5051029;28;20737;-58
2022/10/06 10:04:01;;;;;;;5.45;1.00;;;15.00;91.80;;;;;;5052326;28;20021;-60
2022/10/06 10:06:29;;;;;;;8.10;1.38;;;15.10;91.40;;;;;;5051746;28;20044;-60
2022/10/06 10:09:24;;;;;;;4.22;1.42;;;15.20;91.00;;;;;;5051377;28;20018;-57
2022/10/06 10:12:23;;;;;;;4.07;1.15;;;15.20;90.50;;;;;;5051983;28;20095;-58
2022/10/06 10:15:09;;;;;;;7.07;1.52;;;15.20;90.60;;;;;;5051379;28;20036;-63
2022/10/06 10:17:56;;;;;;;5.03;1.30;;;15.20;90.20;;;;;;5047993;28;20068;-60
2022/10/06 10:20:36;;;;;;;5.60;1.33;;;15.30;89.60;;;;;;5051684;28;20033;-53
2022/10/06 10:23:31;;;;;;;4.40;1.10;;;15.30;90.00;;;;;;5051867;28;20049;-64
2022/10/06 10:26:16;;;;;;;3.97;1.00;;;15.50;90.00;;;;;;5051489;28;20139;-59
2022/10/06 10:29:00;;;;;;;5.43;1.75;;;15.60;89.40;;;;;;5051352;28;20486;-60
2022/10/06 10:31:50;;;;;;;2.63;0.90;;;15.70;88.50;;;;;;5052009;28;20465;-68
2022/10/06 10:34:43;;;;;;;5.05;1.20;;;15.90;87.50;;;;;;5051361;28;20029;-55
2022/10/06 10:37:42;;;;;;;7.18;1.45;;;15.90;86.50;;;;;;5051917;28;20033;-55
2022/10/06 10:40:19;;;;;;;5.05;1.30;;;15.80;85.30;;;;;;5051486;28;20120;-62
2022/10/06 10:42:56;;;;;;;4.30;0.95;;;15.70;85.10;;;;;;5050897;28;20025;-64
2022/10/06 10:45:35;;;;;;;4.57;1.10;;;15.70;86.20;;;;;;5051767;28;20025;-62
2022/10/06 10:48:09;;;;;;;3.72;1.20;;;15.70;85.90;;;;;;5050841;28;20033;-53
2022/10/06 10:50:54;;;;;;;4.30;1.17;;;15.80;85.50;;;;;;5051673;28;20048;-54
2022/10/06 10:53:27;;;;;;;5.03;1.27;;;15.90;84.90;;;;;;5051734;28;20074;-53
2022/10/06 10:55:52;;;;;;;5.22;1.08;;;15.90;83.70;;;;;;5050758;28;20388;-58
2022/10/06 10:58:37;;;;;;;5.82;1.05;;;15.90;82.60;;;;;;5050394;28;20461;-60
2022/10/06 11:01:28;;;;;;;6.50;1.10;;;15.90;83.00;;;;;;5051068;28;20036;-62
2022/10/06 11:03:57;;;;;;;3.88;1.13;;;15.90;81.60;;;;;;5050503;28;20043;-52
2022/10/06 11:06:37;;;;;;;5.63;1.65;;;16.00;82.70;;;;;;5051483;28;20033;-60
2022/10/06 11:09:07;;;;;;;6.25;1.27;;;16.10;81.70;;;;;;5048657;28;20077;-56
2022/10/06 11:11:41;;;;;;;5.47;1.50;;;16.10;81.70;;;;;;5051246;28;20028;-56
2022/10/06 11:14:53;;;;;;;7.57;1.95;;;16.00;81.20;;;;;;5050457;28;20036;-58
2022/10/06 11:17:38;;;;;;;3.70;1.08;;;15.80;81.70;;;;;;5028576;28;20022;-52
2022/10/06 11:20:33;;;;;;;5.80;1.02;;;15.80;83.20;;;;;;5028589;28;20036;-60
2022/10/06 11:23:37;;;;;;;3.30;0.90;;;15.90;83.10;;;;;;5045644;28;20530;-71
2022/10/06 11:26:08;;;;;;;3.65;1.10;;;16.00;80.80;;;;;;5050810;28;20039;-70
2022/10/06 11:28:39;;;;;;;5.20;1.08;;;16.00;79.90;;;;;;5049051;28;20021;-69
2022/10/06 11:31:21;;;;;;;4.93;0.85;;;16.00;80.20;;;;;;5050962;28;20029;-64
2022/10/06 11:33:52;;;;;;;3.70;0.90;;;16.00;81.20;;;;;;5050589;28;20047;-54
2022/10/06 11:36:33;;;;;;;5.45;1.08;;;16.00;81.30;;;;;;5049102;28;20549;-51
2022/10/06 11:39:25;;;;;;;;;;;16.00;79.30;;;;;;5051171;28;20070;-58
2022/10/06 11:42:29;;;;;;;4.47;1.27;;;15.90;80.70;;;;;;5049690;28;19959;-58
2022/10/06 11:45:12;;;;;;;5.20;1.67;;;15.90;80.50;;;;;;5032047;28;20037;-59
2022/10/06 11:48:12;;;;;;;4.32;1.20;;;15.90;79.20;;;;;;5050744;28;20027;-52
2022/10/06 11:50:44;;;;;;;2.85;0.90;;;15.80;80.00;;;;;;5082315;28;20025;-59
2022/10/06 11:53:42;;;;;;;;;;;15.80;79.70;;;;;;5051218;28;20025;-57
2022/10/06 11:56:16;;;;;;;3.40;0.80;;;15.80;80.10;;;;;;5049102;28;19912;-54
2022/10/06 11:58:51;;;;;;;5.20;1.42;;;15.80;79.30;;;;;;5050906;28;20021;-56
2022/10/06 12:01:38;;;;;;;9.55;1.48;;;15.80;79.20;;;;;;5054951;28;20036;-55
2022/10/06 12:04:09;;;;;;;3.20;0.93;;;15.90;79.80;;;;;;5049771;28;20571;-58
2022/10/06 12:06:41;;;;;;;4.60;1.08;;;16.00;79.10;;;;;;5050782;28;20032;-63
2022/10/06 12:09:25;;;;;;;4.50;0.98;;;16.10;78.70;;;;;;5050282;28;20033;-59
2022/10/06 12:12:01;;;;;;;2.53;0.88;;;16.20;78.30;;;;;;5049751;28;20026;-57
2022/10/06 12:14:35;;;;;;;4.50;1.00;;;16.30;77.80;;;;;;5050398;28;20036;-55
2022/10/06 12:17:25;;;;;;;4.43;1.08;;;16.40;77.80;;;;;;5050515;28;20025;-64
2022/10/06 12:20:13;;;;;;;4.50;1.20;;;16.50;77.60;;;;;;5050368;28;20064;-58
2022/10/06 12:22:48;;;;;;;7.68;1.90;;;16.60;77.70;;;;;;5050617;28;20017;-61
2022/10/06 12:25:19;;;;;;;7.18;1.23;;;16.60;76.80;;;;;;5049776;28;20355;-59
2022/10/06 12:27:57;;;;;;;7.10;1.20;;;16.60;76.50;;;;;;5050316;28;20083;-60
2022/10/06 12:30:44;;;;;;;4.05;1.02;;;16.70;76.00;;;;;;5050604;28;20108;-65
2022/10/06 12:33:18;;;;;;;5.35;0.93;;;16.70;76.40;;;;;;5052466;28;20037;-63
2022/10/06 12:35:44;;;;;;;4.70;1.30;;;16.80;76.00;;;;;;5053794;28;20028;-50
2022/10/06 12:38:34;;;;;;;6.45;1.63;;;16.70;76.00;;;;;;5054246;28;20028;-59
2022/10/06 12:41:00;;;;;;;7.03;0.98;;;16.80;76.10;;;;;;5053893;28;20021;-65
2022/10/06 12:43:53;;;;;;;6.20;1.15;;;16.70;75.70;;;;;;5054252;28;20041;-65
2022/10/06 12:46:37;;;;;;;2.53;1.13;;;16.60;75.60;;;;;;5053344;28;20353;-72
2022/10/06 12:49:38;;;;;;;3.05;1.10;;;16.50;76.20;;;;;;5052379;28;20453;-67
2022/10/06 12:52:17;;;;;;;5.90;1.40;;;16.50;76.20;;;;;;5041226;28;20470;-62
2022/10/06 12:54:57;;;;;;;3.20;0.90;;;16.60;74.40;;;;;;5053168;28;20044;-58
2022/10/06 12:57:29;;;;;;;3.67;1.10;;;16.60;74.10;;;;;;5053796;28;20096;-60
2022/10/06 12:59:55;;;;;;;4.40;1.05;;;16.70;74.70;;;;;;5053021;28;20017;-69
2022/10/06 13:02:27;;;;;;;4.82;1.20;;;16.80;75.00;;;;;;5053728;28;20071;-60
2022/10/06 13:05:00;;;;;;;4.03;1.00;;;16.90;74.60;;;;;;5053179;28;20040;-51
2022/10/06 13:07:29;;;;;;;3.25;0.88;;;17.00;73.70;;;;;;5085312;28;20021;-59
2022/10/06 13:10:13;;;;;;;5.95;1.25;;;17.10;73.00;;;;;;5053204;28;20036;-66
2022/10/06 13:12:49;;;;;;;4.95;0.85;;;17.20;72.40;;;;;;5053388;28;20048;-65
2022/10/06 13:15:26;;;;;;;4.18;1.00;;;17.20;72.30;;;;;;5052709;28;20020;-53
2022/10/06 13:18:00;;;;;;;3.83;1.00;;;17.20;73.10;;;;;;5052765;28;20118;-62
2022/10/06 13:20:45;;;;;;;4.13;1.35;;;17.20;72.00;;;;;;5053376;28;20177;-58
2022/10/06 13:23:27;;;;;;;2.63;1.00;;;17.20;72.00;;;;;;5053319;28;20060;-61
2022/10/06 13:26:01;;;;;;;7.40;1.35;;;17.20;72.30;;;;;;5052954;28;20041;-62